Time;durP1;ratioP1;P1;durP2;ratioP2;P2;SDS_P1;SDS_P2;PMS_P1;PMS_P2;Temp;Humidity;BMP_temperature;BMP_pressure;BME280_temperature;BME280_humidity;BME280_pressure;Samples;Min_cycle;Max_cycle;Signal;HPM_P1;HPM_P2
2024/01/15 00:02:00;;;;;;;28.83;13.00;;;;;;;-1.14;65.36;99724.41;4217817;28;20040;-63
2024/01/15 00:04:04;;;;;;;28.95;13.32;;;;;;;-1.16;64.21;99714.94;4219458;28;20079;-64
2024/01/15 00:06:06;;;;;;;27.38;13.65;;;;;;;-1.08;64.52;99711.97;4213778;28;20085;-62
2024/01/15 00:08:11;;;;;;;23.45;13.30;;;;;;;-1.08;64.38;99713.63;4216264;28;20043;-63
2024/01/15 00:10:13;;;;;;;31.88;14.73;;;;;;;-0.96;65.10;99710.81;4211527;28;20055;-63
2024/01/15 00:12:16;;;;;;;23.13;11.93;;;;;;;-1.01;64.22;99707.16;4207277;28;20098;-64
2024/01/15 00:14:20;;;;;;;30.95;15.05;;;;;;;-0.93;65.05;99700.75;4205974;28;20036;-63
2024/01/15 00:16:23;;;;;;;27.02;12.52;;;;;;;-0.84;63.96;99706.28;4211479;28;20036;-64
2024/01/15 00:18:26;;;;;;;26.80;13.30;;;;;;;-0.86;65.22;99707.91;4211570;28;20044;-62
2024/01/15 00:20:29;;;;;;;27.55;13.15;;;;;;;-0.89;64.26;99695.00;4212016;28;20051;-64
2024/01/15 00:22:35;;;;;;;25.42;12.23;;;;;;;-0.78;64.56;99698.91;4217388;28;20105;-64
2024/01/15 00:24:39;;;;;;;26.58;13.13;;;;;;;-0.77;64.82;99695.56;4213565;28;20039;-63
2024/01/15 00:26:42;;;;;;;24.88;12.65;;;;;;;-0.79;64.00;99697.19;4214876;28;20477;-63
2024/01/15 00:28:45;;;;;;;23.00;12.75;;;;;;;-0.71;64.28;99700.09;4212623;28;20054;-62
2024/01/15 00:30:48;;;;;;;27.75;13.30;;;;;;;-0.66;63.91;99697.75;4209004;28;20075;-62
2024/01/15 00:32:50;;;;;;;23.98;11.55;;;;;;;-0.60;64.67;99700.56;4207420;28;20040;-62
2024/01/15 00:34:53;;;;;;;26.98;13.02;;;;;;;-0.55;63.48;99697.44;4212421;28;20128;-62
2024/01/15 00:36:56;;;;;;;23.65;12.07;;;;;;;-0.55;63.90;99696.56;4208842;28;20044;-62
2024/01/15 00:38:59;;;;;;;28.52;13.35;;;;;;;-0.59;63.73;99695.53;4210033;28;20450;-62
2024/01/15 00:41:05;;;;;;;27.25;13.68;;;;;;;-0.58;64.83;99676.88;4217086;28;20085;-63
2024/01/15 00:43:07;;;;;;;25.13;12.13;;;;;;;-0.50;64.45;99678.91;4214154;28;20568;-61
2024/01/15 00:45:11;;;;;;;25.15;12.68;;;;;;;-0.57;63.70;99672.63;4211759;28;20496;-62
2024/01/15 00:47:14;;;;;;;28.70;13.30;;;;;;;-0.63;63.59;99674.91;4203666;28;20090;-62
2024/01/15 00:49:17;;;;;;;26.58;13.13;;;;;;;-0.62;64.39;99671.56;4206514;28;20028;-62
2024/01/15 00:51:21;;;;;;;24.55;13.05;;;;;;;-0.61;64.30;99666.53;4208921;28;20037;-62
2024/01/15 00:53:23;;;;;;;27.80;12.82;;;;;;;-0.47;63.80;99667.13;4211984;28;20386;-61
2024/01/15 00:55:26;;;;;;;27.08;11.98;;;;;;;-0.63;63.52;99667.25;4203795;28;20108;-62
2024/01/15 00:57:30;;;;;;;27.50;12.70;;;;;;;-0.64;64.44;99670.59;4212820;28;20123;-62
2024/01/15 00:59:33;;;;;;;29.42;14.55;;;;;;;-0.63;64.54;99669.81;4210202;28;20039;-62
2024/01/15 01:01:37;;;;;;;25.10;12.45;;;;;;;-0.69;63.29;99666.97;4213150;28;20044;-62
2024/01/15 01:03:40;;;;;;;28.23;12.27;;;;;;;-0.64;63.66;99673.16;4214154;28;20044;-62
2024/01/15 01:05:44;;;;;;;28.35;14.80;;;;;;;-0.55;64.22;99665.94;4209596;28;20040;-61
2024/01/15 01:07:47;;;;;;;33.05;14.15;;;;;;;-0.59;64.59;99664.91;4204465;28;20048;-62
2024/01/15 01:09:51;;;;;;;30.63;13.52;;;;;;;-0.56;64.04;99664.19;4210684;28;20036;-62
2024/01/15 01:11:53;;;;;;;29.52;13.40;;;;;;;-0.48;64.61;99664.53;4207428;28;20086;-62
2024/01/15 01:13:57;;;;;;;28.27;11.48;;;;;;;-0.47;64.25;99664.59;4205470;28;20040;-62
2024/01/15 01:16:00;;;;;;;26.42;12.45;;;;;;;-0.42;64.00;99665.69;4203105;28;20084;-62
2024/01/15 01:18:02;;;;;;;22.20;12.55;;;;;;;-0.51;63.38;99657.63;4216685;28;20101;-62
2024/01/15 01:20:09;;;;;;;29.45;14.57;;;;;;;-0.49;63.38;99658.56;4214142;28;20051;-62
2024/01/15 01:22:12;;;;;;;25.08;12.63;;;;;;;-0.49;63.79;99656.00;4210260;28;20043;-62
2024/01/15 01:24:15;;;;;;;28.73;13.88;;;;;;;-0.51;63.95;99662.72;4211914;28;20386;-62
2024/01/15 01:26:18;;;;;;;27.25;13.60;;;;;;;-0.46;64.05;99668.03;4210707;28;20489;-62
2024/01/15 01:28:21;;;;;;;30.40;13.88;;;;;;;-0.40;63.61;99660.66;4212334;28;20074;-62
2024/01/15 01:30:26;;;;;;;26.92;13.23;;;;;;;-0.43;64.25;99666.47;4210676;28;20475;-62
2024/01/15 01:32:29;;;;;;;29.42;15.52;;;;;;;-0.40;63.68;99666.63;4211729;28;20044;-62
2024/01/15 01:34:33;;;;;;;29.83;14.55;;;;;;;-0.28;63.62;99666.28;4212078;28;20033;-62
2024/01/15 01:36:37;;;;;;;24.67;12.48;;;;;;;-0.41;64.28;99669.09;4207760;28;20093;-62
2024/01/15 01:38:40;;;;;;;30.23;13.80;;;;;;;-0.52;64.59;99671.19;4211455;28;20502;-62
2024/01/15 01:40:43;;;;;;;27.98;14.05;;;;;;;-0.41;63.55;99659.78;4208957;28;20032;-62
2024/01/15 01:42:46;;;;;;;28.05;14.65;;;;;;;-0.37;63.42;99671.84;4212765;28;20040;-63
2024/01/15 01:44:49;;;;;;;24.10;12.98;;;;;;;-0.34;64.31;99654.94;4206370;28;20071;-62
2024/01/15 01:46:54;;;;;;;32.05;14.15;;;;;;;-0.29;63.49;99661.13;4210818;28;20398;-62
2024/01/15 01:49:01;;;;;;;31.27;13.90;;;;;;;-0.30;64.22;99661.94;4215320;28;20036;-63
2024/01/15 01:51:05;;;;;;;27.38;13.80;;;;;;;-0.29;64.41;99650.91;4210624;28;20796;-62
2024/01/15 01:53:09;;;;;;;28.95;15.07;;;;;;;-0.32;64.43;99654.22;4204933;28;20441;-62
2024/01/15 01:55:13;;;;;;;28.85;15.27;;;;;;;-0.30;64.72;99651.72;4209635;28;20036;-63
2024/01/15 01:57:18;;;;;;;30.35;14.80;;;;;;;-0.27;64.65;99654.41;4211866;28;20382;-63
2024/01/15 01:59:20;;;;;;;;;;;;;;;-0.26;64.18;99646.81;4211564;28;20136;-63
2024/01/15 02:01:23;;;;;;;29.88;14.13;;;;;;;-0.30;64.61;99638.97;4210887;28;19920;-63
2024/01/15 02:03:28;;;;;;;32.38;15.30;;;;;;;-0.32;63.95;99644.00;4205936;28;20056;-62
2024/01/15 02:05:32;;;;;;;31.92;15.10;;;;;;;-0.41;64.89;99644.47;4207137;28;20036;-62
2024/01/15 02:07:36;;;;;;;32.05;15.00;;;;;;;-0.47;64.08;99650.97;4218208;28;20051;-62
2024/01/15 02:09:39;;;;;;;28.55;14.23;;;;;;;-0.39;64.64;99647.09;4200648;28;20032;-62
2024/01/15 02:11:42;;;;;;;29.40;15.20;;;;;;;-0.28;64.09;99650.09;4205126;28;20506;-62
2024/01/15 02:13:45;;;;;;;26.55;14.10;;;;;;;-0.31;64.13;99644.88;4201291;28;20037;-62
2024/01/15 02:15:48;;;;;;;33.53;16.50;;;;;;;-0.25;64.28;99647.69;4215091;28;20036;-62
2024/01/15 02:17:58;;;;;;;30.35;14.32;;;;;;;-0.29;63.87;99640.69;4213360;28;20036;-62
2024/01/15 02:20:02;;;;;;;32.92;14.98;;;;;;;-0.45;64.48;99640.00;4215088;28;20046;-62
2024/01/15 02:22:06;;;;;;;29.90;13.15;;;;;;;-0.40;63.83;99648.75;4216349;28;20044;-62
2024/01/15 02:24:10;;;;;;;31.08;15.30;;;;;;;-0.37;64.37;99641.22;4209373;28;20049;-62
2024/01/15 02:26:13;;;;;;;33.55;15.15;;;;;;;-0.35;63.45;99638.75;4210236;28;20119;-62
2024/01/15 02:28:17;;;;;;;24.02;13.02;;;;;;;-0.44;64.43;99634.13;4210192;28;20055;-62
2024/01/15 02:30:20;;;;;;;25.25;13.13;;;;;;;-0.43;64.55;99625.63;4211212;28;20060;-62
2024/01/15 02:32:23;;;;;;;28.90;14.68;;;;;;;-0.47;64.55;99631.41;4204714;28;20036;-63
2024/01/15 02:34:26;;;;;;;31.27;14.98;;;;;;;-0.45;64.18;99627.25;4215750;28;20150;-62
2024/01/15 02:36:29;;;;;;;29.58;14.20;;;;;;;-0.50;64.43;99625.28;4205733;28;20062;-62
2024/01/15 02:38:31;;;;;;;28.67;14.85;;;;;;;-0.40;65.06;99617.22;4210885;28;20056;-62
2024/01/15 02:40:36;;;;;;;26.98;13.52;;;;;;;-0.21;64.73;99612.13;4210492;28;20059;-63
2024/01/15 02:42:39;;;;;;;;;;;;;;;-0.29;63.82;99600.72;4211341;28;20566;-63
2024/01/15 02:44:42;;;;;;;24.58;11.30;;;;;;;-0.30;64.45;99595.53;4207873;28;20373;-64
2024/01/15 02:46:45;;;;;;;31.35;13.98;;;;;;;-0.23;64.63;99572.00;4211890;28;20046;-64
2024/01/15 02:48:48;;;;;;;26.73;12.35;;;;;;;-0.15;64.43;99580.00;4210610;28;20028;-63
2024/01/15 02:50:51;;;;;;;26.50;13.18;;;;;;;-0.04;64.27;99604.34;4211282;28;20071;-63
2024/01/15 02:52:54;;;;;;;25.77;12.18;;;;;;;-0.04;63.05;99620.53;4214352;28;20046;-63
2024/01/15 02:54:56;;;;;;;27.50;12.20;;;;;;;-0.37;64.11;99635.25;4205929;28;20094;-63
2024/01/15 02:57:01;;;;;;;25.67;12.55;;;;;;;-0.46;64.56;99630.59;4206257;28;20513;-63
2024/01/15 02:59:04;;;;;;;26.55;11.68;;;;;;;-0.46;64.80;99625.50;4206763;28;20528;-63
2024/01/15 03:01:07;;;;;;;24.33;12.38;;;;;;;-0.41;64.99;99623.13;4209421;28;20308;-63
2024/01/15 03:03:10;;;;;;;26.73;11.57;;;;;;;-0.43;64.32;99623.06;4207299;28;20052;-62
2024/01/15 03:05:13;;;;;;;23.85;11.75;;;;;;;-0.40;64.92;99632.56;4215771;28;20132;-63
2024/01/15 03:07:16;;;;;;;26.80;10.50;;;;;;;-0.42;64.59;99632.50;4208368;28;20037;-63
2024/01/15 03:09:19;;;;;;;25.48;12.82;;;;;;;-0.39;65.23;99627.50;4210906;28;20130;-63
2024/01/15 03:11:21;;;;;;;24.95;11.15;;;;;;;-0.34;64.92;99625.16;4206836;28;20032;-63
2024/01/15 03:13:26;;;;;;;23.10;11.35;;;;;;;-0.25;65.68;99630.69;4206971;28;20044;-63
2024/01/15 03:15:28;;;;;;;24.48;13.13;;;;;;;-0.23;65.06;99636.72;4203232;28;20037;-63
2024/01/15 03:17:32;;;;;;;26.45;12.30;;;;;;;-0.16;65.18;99630.22;4212981;28;20083;-62
2024/01/15 03:19:35;;;;;;;26.13;11.98;;;;;;;-0.03;64.54;99627.38;4206756;28;20041;-62
2024/01/15 03:21:39;;;;;;;24.67;11.13;;;;;;;-0.10;64.65;99622.81;4215347;28;20088;-63
2024/01/15 03:23:42;;;;;;;27.48;12.10;;;;;;;-0.17;64.76;99628.47;4206913;28;20046;-62
2024/01/15 03:25:45;;;;;;;23.85;11.38;;;;;;;-0.21;64.76;99621.47;4204915;28;20402;-62
2024/01/15 03:27:48;;;;;;;25.85;12.27;;;;;;;-0.21;65.28;99629.13;4215377;28;20071;-62
2024/01/15 03:29:52;;;;;;;24.77;12.07;;;;;;;-0.26;64.60;99628.06;4209474;28;20040;-65
2024/01/15 03:31:55;;;;;;;23.83;11.73;;;;;;;-0.37;65.83;99631.00;4211793;28;20046;-63
2024/01/15 03:33:58;;;;;;;23.48;11.60;;;;;;;-0.31;65.16;99632.09;4225962;28;20047;-63
2024/01/15 03:36:01;;;;;;;25.70;12.25;;;;;;;-0.19;65.55;99619.84;4202978;28;20493;-63
2024/01/15 03:38:03;;;;;;;24.65;12.27;;;;;;;-0.04;64.79;99615.41;4219509;28;20040;-63
2024/01/15 03:40:08;;;;;;;27.42;12.40;;;;;;;-0.09;65.27;99632.25;4208214;28;20456;-63
2024/01/15 03:42:11;;;;;;;22.20;10.98;;;;;;;-0.12;64.33;99621.00;4215255;28;20042;-63
2024/01/15 03:44:14;;;;;;;27.67;12.52;;;;;;;-0.11;65.21;99605.75;4219417;28;20408;-64
2024/01/15 03:46:19;;;;;;;26.58;12.57;;;;;;;-0.06;64.42;99617.03;4209870;28;20094;-64
2024/01/15 03:48:22;;;;;;;24.77;12.40;;;;;;;0.08;64.34;99620.16;4206878;28;20040;-63
2024/01/15 03:50:25;;;;;;;25.20;12.05;;;;;;;0.12;63.89;99614.38;4208290;28;20115;-63
2024/01/15 03:52:27;;;;;;;24.67;13.35;;;;;;;-0.07;64.05;99611.88;4205759;28;20045;-62
2024/01/15 03:54:30;;;;;;;26.17;12.77;;;;;;;-0.07;64.49;99599.09;4219235;28;20097;-62
2024/01/15 03:56:32;;;;;;;22.67;11.82;;;;;;;-0.05;64.41;99600.03;4211607;28;20032;-62
2024/01/15 03:58:35;;;;;;;27.20;12.18;;;;;;;0.14;64.55;99615.31;4200322;28;20078;-62
2024/01/15 04:00:38;;;;;;;25.75;12.02;;;;;;;0.21;63.69;99619.00;4214295;28;20052;-63
2024/01/15 04:02:42;;;;;;;24.98;11.18;;;;;;;0.01;63.64;99620.72;4209817;28;20465;-63
2024/01/15 04:04:45;;;;;;;22.65;10.73;;;;;;;-0.07;64.62;99610.19;4224897;28;20058;-63
2024/01/15 04:06:48;;;;;;;23.58;11.98;;;;;;;0.04;63.45;99607.19;4202084;28;20082;-63
2024/01/15 04:08:50;;;;;;;23.20;11.57;;;;;;;-0.09;63.97;99596.47;4215095;28;20506;-63
2024/01/15 04:10:53;;;;;;;25.17;12.07;;;;;;;-0.10;64.30;99596.38;4219344;28;20627;-63
2024/01/15 04:12:56;;;;;;;28.90;12.45;;;;;;;-0.10;64.66;99588.72;4220939;28;20129;-63
2024/01/15 04:14:58;;;;;;;23.80;12.25;;;;;;;-0.12;64.91;99585.25;4215146;28;20063;-63
2024/01/15 04:17:01;;;;;;;25.92;13.00;;;;;;;-0.15;64.64;99583.41;4200837;28;20044;-63
2024/01/15 04:19:05;;;;;;;21.73;10.60;;;;;;;-0.13;65.18;99584.38;4211246;28;20036;-63
2024/01/15 04:21:08;;;;;;;24.45;11.68;;;;;;;-0.11;64.91;99582.75;4209007;28;20493;-64
2024/01/15 04:23:11;;;;;;;23.67;11.20;;;;;;;-0.07;65.36;99574.41;4211073;28;20123;-63
2024/01/15 04:25:14;;;;;;;22.58;11.88;;;;;;;-0.08;65.27;99574.34;4224805;28;20035;-62
2024/01/15 04:27:17;;;;;;;24.75;12.27;;;;;;;-0.07;64.62;99576.97;4204786;28;20088;-63
2024/01/15 04:29:20;;;;;;;23.63;12.30;;;;;;;-0.05;65.58;99588.09;4201702;28;20060;-63
2024/01/15 04:31:24;;;;;;;24.52;12.25;;;;;;;-0.03;65.42;99581.41;4205684;28;20445;-62
2024/01/15 04:33:27;;;;;;;28.67;12.90;;;;;;;0.02;64.91;99567.94;4203582;28;20048;-63
2024/01/15 04:35:34;;;;;;;25.38;11.40;;;;;;;0.07;64.93;99561.34;4202372;28;20039;-63
2024/01/15 04:37:37;;;;;;;24.35;11.80;;;;;;;0.11;65.08;99558.09;4207424;28;20036;-62
2024/01/15 04:39:41;;;;;;;24.23;11.85;;;;;;;0.07;65.36;99562.19;4201752;28;20374;-61
2024/01/15 04:41:44;;;;;;;19.30;10.10;;;;;;;0.01;64.71;99566.19;4215297;28;20039;-62
2024/01/15 04:43:47;;;;;;;27.13;12.90;;;;;;;-0.04;65.70;99564.31;4210364;28;20101;-62
2024/01/15 04:45:49;;;;;;;23.17;10.98;;;;;;;0.12;65.84;99554.75;4209704;28;20041;-62
2024/01/15 04:47:52;;;;;;;27.13;12.82;;;;;;;0.14;65.48;99558.22;4198954;28;20525;-62
2024/01/15 04:49:55;;;;;;;24.08;11.40;;;;;;;0.16;65.84;99546.38;4205586;28;20123;-63
2024/01/15 04:51:59;;;;;;;24.63;11.25;;;;;;;0.33;64.84;99542.81;4215209;28;20131;-62
2024/01/15 04:54:02;;;;;;;25.95;11.38;;;;;;;0.37;63.61;99560.88;4205079;28;20068;-62
2024/01/15 04:56:05;;;;;;;27.27;12.18;;;;;;;0.24;64.24;99555.22;4206769;28;20036;-62
2024/01/15 04:58:08;;;;;;;23.40;11.27;;;;;;;0.07;64.45;99556.22;4206441;28;20054;-63
2024/01/15 05:00:12;;;;;;;26.60;13.13;;;;;;;-0.11;65.29;99557.19;4207908;28;20401;-63
2024/01/15 05:02:15;;;;;;;26.05;12.82;;;;;;;-0.21;65.16;99561.03;4201676;28;20041;-63
2024/01/15 05:04:17;;;;;;;30.15;13.32;;;;;;;-0.22;65.49;99555.88;4213771;28;20286;-62
2024/01/15 05:06:20;;;;;;;22.83;12.57;;;;;;;-0.17;65.24;99549.28;4212545;28;20032;-63
2024/01/15 05:08:25;;;;;;;28.02;13.85;;;;;;;-0.13;65.69;99543.50;4214571;28;20060;-63
2024/01/15 05:10:28;;;;;;;23.38;11.65;;;;;;;-0.09;65.99;99545.38;4198432;28;20064;-64
2024/01/15 05:12:31;;;;;;;21.77;11.55;;;;;;;0.01;66.16;99549.16;4198282;28;20040;-63
2024/01/15 05:14:34;;;;;;;26.77;12.25;;;;;;;0.03;65.87;99554.34;4195789;28;20033;-63
2024/01/15 05:16:39;;;;;;;22.77;11.77;;;;;;;-0.03;65.94;99550.75;4199252;28;20032;-63
2024/01/15 05:18:43;;;;;;;24.27;11.90;;;;;;;-0.06;66.19;99537.84;4206082;28;20463;-63
2024/01/15 05:20:46;;;;;;;25.58;12.57;;;;;;;-0.02;65.62;99534.56;4210234;28;20135;-63
2024/01/15 05:22:49;;;;;;;25.00;13.23;;;;;;;-0.11;66.45;99530.78;4212917;28;20478;-63
2024/01/15 05:24:53;;;;;;;26.20;12.10;;;;;;;-0.10;66.05;99528.28;4210001;28;20036;-63
2024/01/15 05:26:56;;;;;;;23.90;12.38;;;;;;;-0.10;65.76;99528.28;4206601;28;20131;-63
2024/01/15 05:29:00;;;;;;;26.73;13.20;;;;;;;-0.05;65.84;99516.56;4221705;28;20048;-63
2024/01/15 05:31:04;;;;;;;23.17;12.40;;;;;;;-0.02;66.15;99515.84;4231750;28;20042;-63
2024/01/15 05:33:07;;;;;;;23.55;11.43;;;;;;;-0.01;66.09;99515.03;4228132;28;20040;-63
2024/01/15 05:35:11;;;;;;;22.30;11.38;;;;;;;0.11;65.84;99518.06;4214577;28;20481;-63
2024/01/15 05:37:14;;;;;;;23.73;10.95;;;;;;;0.06;66.11;99513.59;4212683;28;20121;-63
2024/01/15 05:39:17;;;;;;;20.60;10.18;;;;;;;0.01;66.69;99509.97;4214600;28;20417;-63
2024/01/15 05:41:23;;;;;;;22.35;11.73;;;;;;;0.06;66.26;99513.59;4214607;28;20050;-63
2024/01/15 05:43:26;;;;;;;24.40;12.02;;;;;;;0.01;66.77;99515.94;4214513;28;20131;-62
2024/01/15 05:45:29;;;;;;;19.83;10.75;;;;;;;0.04;66.95;99520.31;4212097;28;20140;-63
2024/01/15 05:47:32;;;;;;;22.42;11.05;;;;;;;0.03;66.68;99516.00;4214114;28;20044;-63
2024/01/15 05:49:34;;;;;;;24.58;11.50;;;;;;;0.06;66.80;99514.47;4214457;28;20032;-63
2024/01/15 05:51:38;;;;;;;23.63;12.23;;;;;;;0.08;66.49;99512.84;4206554;28;20502;-63
2024/01/15 05:53:42;;;;;;;24.63;11.68;;;;;;;0.13;66.46;99513.03;4214376;28;20040;-64
2024/01/15 05:55:45;;;;;;;20.48;10.43;;;;;;;0.13;66.29;99513.03;4214497;28;20067;-63
2024/01/15 05:57:50;;;;;;;25.58;12.07;;;;;;;0.11;67.12;99512.09;4210159;28;20031;-63
2024/01/15 05:59:52;;;;;;;26.85;13.05;;;;;;;0.07;66.80;99507.66;4208668;28;20123;-62
2024/01/15 06:01:55;;;;;;;26.10;11.95;;;;;;;0.11;67.09;99510.41;4214020;28;20043;-63
2024/01/15 06:03:58;;;;;;;26.65;13.40;;;;;;;0.11;66.35;99512.09;4214187;28;20044;-63
2024/01/15 06:06:03;;;;;;;31.90;12.82;;;;;;;0.12;66.02;99511.31;4212327;28;20118;-63
2024/01/15 06:08:06;;;;;;;24.35;13.20;;;;;;;0.24;66.35;99511.78;4211103;28;20433;-64
2024/01/15 06:10:10;;;;;;;29.75;14.35;;;;;;;0.27;65.66;99503.38;4214342;28;20040;-63
2024/01/15 06:12:13;;;;;;;27.90;13.75;;;;;;;0.24;65.81;99516.91;4212940;28;20032;-64
2024/01/15 06:14:17;;;;;;;22.63;12.00;;;;;;;0.11;65.61;99512.09;4214207;28;20077;-64
2024/01/15 06:16:21;;;;;;;21.63;10.68;;;;;;;0.12;65.80;99516.41;4212923;28;20123;-63
2024/01/15 06:18:24;;;;;;;22.20;11.82;;;;;;;0.13;66.56;99515.56;4213585;28;20040;-63
2024/01/15 06:20:27;;;;;;;26.05;13.00;;;;;;;0.26;65.59;99512.69;4214008;28;20035;-63
2024/01/15 06:22:30;;;;;;;21.35;11.07;;;;;;;0.23;65.82;99515.13;4210081;28;20051;-63
2024/01/15 06:24:33;;;;;;;20.77;11.20;;;;;;;0.24;65.94;99522.00;4213896;28;20048;-63
2024/01/15 06:26:35;;;;;;;20.48;10.32;;;;;;;0.24;66.65;99521.16;4213316;28;20537;-63
2024/01/15 06:28:39;;;;;;;21.42;11.73;;;;;;;0.25;66.12;99510.09;4205714;28;20085;-63
2024/01/15 06:30:43;;;;;;;20.38;11.05;;;;;;;0.28;66.73;99508.53;4212561;28;20032;-64
2024/01/15 06:32:46;;;;;;;21.85;10.13;;;;;;;0.31;66.43;99520.59;4213852;28;20047;-63
2024/01/15 06:34:49;;;;;;;25.85;12.35;;;;;;;0.24;66.40;99523.69;4213922;28;20047;-63
2024/01/15 06:36:52;;;;;;;22.77;11.57;;;;;;;0.26;66.53;99519.50;4212116;28;20094;-63
2024/01/15 06:38:55;;;;;;;23.55;12.13;;;;;;;0.32;66.78;99527.41;4210696;28;20077;-63
2024/01/15 06:40:58;;;;;;;22.02;11.55;;;;;;;0.34;65.89;99518.16;4213792;28;20126;-63
2024/01/15 06:43:01;;;;;;;23.27;11.90;;;;;;;0.38;65.96;99514.91;4213769;28;20032;-63
2024/01/15 06:45:06;;;;;;;22.13;11.38;;;;;;;0.40;65.80;99517.53;4213753;28;20043;-63
2024/01/15 06:47:10;;;;;;;20.88;11.35;;;;;;;0.45;65.91;99513.44;4213673;28;20036;-63
2024/01/15 06:49:13;;;;;;;23.95;11.63;;;;;;;0.43;65.61;99526.16;4212543;28;20070;-63
2024/01/15 06:51:17;;;;;;;20.70;11.75;;;;;;;0.41;66.11;99517.56;4212408;28;20050;-63
2024/01/15 06:53:20;;;;;;;22.52;12.75;;;;;;;0.51;65.91;99513.69;4205914;28;20039;-63
2024/01/15 06:55:23;;;;;;;23.83;12.15;;;;;;;0.61;65.35;99522.59;4213467;28;20110;-63
2024/01/15 06:57:26;;;;;;;21.35;11.20;;;;;;;0.53;65.21;99519.75;4213274;28;20043;-63
2024/01/15 06:59:29;;;;;;;23.67;12.10;;;;;;;0.49;65.73;99526.41;4211389;28;20040;-63
2024/01/15 07:01:33;;;;;;;21.25;12.32;;;;;;;0.48;65.48;99514.44;4213514;28;20040;-63
2024/01/15 07:03:38;;;;;;;21.85;11.73;;;;;;;0.51;65.81;99509.47;4213481;28;20036;-63
2024/01/15 07:05:41;;;;;;;22.83;11.52;;;;;;;0.54;65.65;99508.72;4213663;28;20047;-63
2024/01/15 07:07:43;;;;;;;27.42;13.43;;;;;;;0.42;65.67;99518.44;4207338;28;20048;-63
2024/01/15 07:09:46;;;;;;;23.48;11.90;;;;;;;0.46;65.68;99510.09;4211140;28;20044;-63
2024/01/15 07:11:50;;;;;;;25.02;12.77;;;;;;;0.42;65.76;99510.78;4220553;28;20038;-63
2024/01/15 07:13:53;;;;;;;26.60;13.15;;;;;;;0.42;65.93;99513.31;4220128;28;20039;-63
2024/01/15 07:15:55;;;;;;;26.50;13.35;;;;;;;0.41;65.97;99509.00;4224666;28;20040;-63
2024/01/15 07:17:58;;;;;;;25.40;12.68;;;;;;;0.49;65.91;99505.09;4230000;28;20043;-63
2024/01/15 07:20:02;;;;;;;26.65;12.27;;;;;;;0.47;65.93;99501.59;4229017;28;20075;-63
2024/01/15 07:22:05;;;;;;;24.80;13.15;;;;;;;0.45;66.31;99509.22;4218673;28;20055;-63
2024/01/15 07:24:08;;;;;;;22.23;12.25;;;;;;;0.38;66.21;99508.91;4211143;28;20086;-63
2024/01/15 07:26:11;;;;;;;28.77;14.10;;;;;;;0.48;66.50;99508.44;4213194;28;20040;-63
2024/01/15 07:28:14;;;;;;;26.75;13.55;;;;;;;0.52;65.56;99500.94;4212206;28;20172;-63
2024/01/15 07:30:17;;;;;;;29.80;17.27;;;;;;;0.54;66.07;99511.25;4209401;28;20547;-63
2024/01/15 07:32:21;;;;;;;30.33;16.42;;;;;;;0.50;65.71;99517.06;4212950;28;20044;-63
2024/01/15 07:34:24;;;;;;;25.63;14.05;;;;;;;0.59;65.59;99506.31;4211975;28;20072;-63
2024/01/15 07:36:28;;;;;;;27.10;14.00;;;;;;;0.62;65.23;99514.97;4211790;28;20409;-63
2024/01/15 07:38:31;;;;;;;27.63;14.80;;;;;;;0.56;65.58;99501.09;4214368;28;20044;-63
2024/01/15 07:40:34;;;;;;;23.73;12.70;;;;;;;0.50;65.84;99505.16;4215977;28;20046;-63
2024/01/15 07:42:38;;;;;;;24.00;13.30;;;;;;;0.56;65.66;99504.50;4215485;28;20048;-63
2024/01/15 07:44:41;;;;;;;25.25;13.10;;;;;;;0.44;65.72;99501.47;4216578;28;20119;-62
2024/01/15 07:46:45;;;;;;;25.80;13.15;;;;;;;0.42;66.35;99500.53;4206640;28;20083;-64
2024/01/15 07:48:51;;;;;;;28.48;14.27;;;;;;;0.44;66.20;99491.22;4215991;28;20093;-64
2024/01/15 07:50:54;;;;;;;24.92;13.63;;;;;;;0.45;66.23;99493.88;4215099;28;20032;-63
2024/01/15 07:52:58;;;;;;;24.05;13.50;;;;;;;0.35;66.61;99486.63;4216254;28;20042;-63
2024/01/15 07:55:03;;;;;;;21.90;11.05;;;;;;;0.24;67.39;99488.78;4216256;28;20126;-63
2024/01/15 07:57:06;;;;;;;20.83;10.77;;;;;;;0.30;67.29;99491.56;4206578;28;20040;-63
2024/01/15 07:59:10;;;;;;;22.70;12.77;;;;;;;0.33;67.24;99501.06;4216075;28;20050;-63
2024/01/15 08:01:12;;;;;;;23.15;11.88;;;;;;;0.41;66.88;99486.00;4215282;28;20048;-63
2024/01/15 08:03:15;;;;;;;26.38;14.23;;;;;;;0.49;66.97;99490.59;4215975;28;20543;-63
2024/01/15 08:05:18;;;;;;;25.30;13.48;;;;;;;0.56;66.67;99494.28;4216155;28;20683;-64
2024/01/15 08:07:20;;;;;;;22.70;12.35;;;;;;;0.56;67.24;99485.75;4203682;28;20250;-63
2024/01/15 08:09:25;;;;;;;21.33;11.32;;;;;;;0.61;66.85;99487.66;4223331;28;20065;-63
2024/01/15 08:11:28;;;;;;;23.90;12.20;;;;;;;0.67;66.59;99490.47;4217348;28;20591;-63
2024/01/15 08:13:31;;;;;;;22.40;12.27;;;;;;;0.84;66.28;99482.53;4215730;28;20089;-63
2024/01/15 08:15:34;;;;;;;21.33;12.05;;;;;;;0.78;66.03;99482.31;4215979;28;20040;-63
2024/01/15 08:17:37;;;;;;;23.88;14.35;;;;;;;0.78;66.61;99485.75;4214410;28;20038;-64
2024/01/15 08:19:41;;;;;;;22.25;11.95;;;;;;;0.78;66.65;99477.19;4215964;28;20054;-63
2024/01/15 08:21:44;;;;;;;23.50;13.68;;;;;;;0.79;66.61;99482.38;4209180;28;20055;-63
2024/01/15 08:23:48;;;;;;;21.92;12.65;;;;;;;0.76;66.80;99477.16;4215677;28;20067;-63
2024/01/15 08:25:52;;;;;;;23.73;13.05;;;;;;;0.77;66.64;99470.34;4215958;28;20074;-64
2024/01/15 08:27:55;;;;;;;21.75;11.60;;;;;;;0.75;66.82;99471.97;4214521;28;20048;-64
2024/01/15 08:29:58;;;;;;;25.88;12.32;;;;;;;0.73;67.02;99473.59;4213296;28;20501;-64
2024/01/15 08:32:01;;;;;;;27.95;13.20;;;;;;;0.72;66.58;99466.75;4223999;28;20101;-64
2024/01/15 08:34:04;;;;;;;23.45;12.20;;;;;;;0.82;66.84;99469.69;4215775;28;20036;-64
2024/01/15 08:36:07;;;;;;;27.17;14.00;;;;;;;0.94;66.70;99470.97;4213505;28;20112;-64
2024/01/15 08:38:10;;;;;;;24.42;12.57;;;;;;;0.89;66.83;99470.78;4212835;28;20314;-64
2024/01/15 08:40:14;;;;;;;19.02;11.85;;;;;;;0.95;66.68;99472.69;4214429;28;20047;-64
2024/01/15 08:42:18;;;;;;;24.90;13.40;;;;;;;0.89;67.06;99477.59;4208866;28;20036;-64
2024/01/15 08:44:21;;;;;;;22.55;12.80;;;;;;;0.95;66.78;99475.25;4215112;28;20113;-64
2024/01/15 08:46:25;;;;;;;26.30;14.02;;;;;;;0.92;66.77;99478.59;4203896;28;20074;-64
2024/01/15 08:48:28;;;;;;;24.38;13.18;;;;;;;0.94;66.54;99478.66;4223596;28;20122;-64
2024/01/15 08:50:33;;;;;;;24.35;13.05;;;;;;;0.93;66.86;99480.31;4231645;28;20094;-64
2024/01/15 08:52:36;;;;;;;24.67;13.25;;;;;;;0.85;66.86;99489.41;4205608;28;20094;-64
2024/01/15 08:54:39;;;;;;;23.95;13.48;;;;;;;0.87;66.97;99474.97;4215228;28;20089;-64
2024/01/15 08:56:42;;;;;;;25.08;13.80;;;;;;;1.00;66.90;99469.47;4215463;28;20043;-64
2024/01/15 08:58:46;;;;;;;25.30;13.73;;;;;;;0.98;66.73;99490.72;4215012;28;20559;-64
2024/01/15 09:00:50;;;;;;;23.98;13.27;;;;;;;1.02;66.77;99488.34;4215299;28;20044;-64
2024/01/15 09:02:53;;;;;;;21.38;12.45;;;;;;;0.95;66.66;99490.59;4213973;28;20032;-64
2024/01/15 09:04:58;;;;;;;24.55;13.55;;;;;;;0.71;66.92;99491.44;4214978;28;20127;-64
2024/01/15 09:07:01;;;;;;;22.85;12.88;;;;;;;0.83;67.11;99483.34;4212899;28;20040;-64
2024/01/15 09:09:06;;;;;;;22.30;12.50;;;;;;;0.78;66.93;99478.06;4212591;28;20035;-64
2024/01/15 09:11:09;;;;;;;25.60;13.70;;;;;;;0.84;66.83;99485.97;4214962;28;20075;-64
2024/01/15 09:13:12;;;;;;;24.17;13.25;;;;;;;0.95;66.81;99476.13;4215061;28;20097;-64
2024/01/15 09:15:17;;;;;;;24.45;13.73;;;;;;;1.04;66.77;99475.59;4213750;28;20079;-64
2024/01/15 09:17:20;;;;;;;24.00;13.13;;;;;;;1.07;66.74;99469.69;4212376;28;20040;-64
2024/01/15 09:19:23;;;;;;;23.75;12.93;;;;;;;1.03;66.60;99478.97;4212934;28;20036;-64
2024/01/15 09:21:26;;;;;;;25.23;13.10;;;;;;;1.00;66.87;99474.59;4203209;28;20133;-64
2024/01/15 09:23:29;;;;;;;25.10;13.25;;;;;;;1.03;66.73;99474.72;4205347;28;20106;-64
2024/01/15 09:25:32;;;;;;;22.98;13.10;;;;;;;1.09;67.03;99470.66;4213541;28;20481;-64
2024/01/15 09:27:35;;;;;;;22.60;11.82;;;;;;;1.16;67.08;99470.06;4214622;28;20040;-64
2024/01/15 09:29:39;;;;;;;22.02;12.85;;;;;;;1.24;66.96;99460.94;4214883;28;20482;-64
2024/01/15 09:31:44;;;;;;;25.52;14.15;;;;;;;1.26;66.99;99464.44;4211508;28;20444;-64